createdAt,value
2019-02-12T00:00:26.891Z,59.41
2019-02-12T00:01:00.080Z,60.19
2019-02-12T00:01:31.389Z,61.54
2019-02-12T00:02:02.825Z,62.19
2019-02-12T00:02:33.993Z,62.45
2019-02-12T00:03:05.234Z,62.12
2019-02-12T00:03:36.463Z,61.62
2019-02-12T00:04:07.669Z,60.95
2019-02-12T00:04:38.939Z,60.27
2019-02-12T00:05:10.142Z,59.65
2019-02-12T00:05:41.371Z,58.96
2019-02-12T00:06:12.541Z,58.38
2019-02-12T00:06:43.797Z,57.80
2019-02-12T00:07:15.005Z,57.15
2019-02-12T00:07:46.243Z,56.55
2019-02-12T00:08:17.461Z,55.97
2019-02-12T00:08:48.689Z,55.37
2019-02-12T00:09:19.873Z,55.02
2019-02-12T00:09:51.083Z,54.49
2019-02-12T00:10:22.278Z,53.73
2019-02-12T00:10:53.513Z,53.06
2019-02-12T00:11:24.727Z,52.91
2019-02-12T00:11:55.933Z,53.03
2019-02-12T00:12:27.123Z,53.29
2019-02-12T00:12:58.470Z,53.80
2019-02-12T00:13:29.702Z,54.48
2019-02-12T00:14:00.941Z,55.19
2019-02-12T00:14:32.132Z,55.91
2019-02-12T00:15:04.772Z,56.60
2019-02-12T00:15:37.151Z,57.30
2019-02-12T00:16:08.612Z,58.01
2019-02-12T00:16:39.810Z,58.91
2019-02-12T00:17:11.049Z,59.55
2019-02-12T00:17:42.338Z,60.64
2019-02-12T00:18:13.580Z,61.58
2019-02-12T00:18:44.779Z,62.24
2019-02-12T00:19:16.031Z,62.42
2019-02-12T00:19:47.314Z,62.22
2019-02-12T00:20:18.574Z,61.59
2019-02-12T00:20:49.790Z,60.86
2019-02-12T00:21:21.084Z,60.20
2019-02-12T00:21:52.259Z,59.48
2019-02-12T00:22:23.511Z,58.66
2019-02-12T00:22:54.715Z,57.99
2019-02-12T00:23:25.954Z,57.56
2019-02-12T00:23:57.120Z,56.96
2019-02-12T00:24:28.359Z,56.52
2019-02-12T00:24:59.532Z,55.97
2019-02-12T00:25:30.773Z,55.48
2019-02-12T00:26:01.953Z,55.09
2019-02-12T00:26:33.203Z,54.60
2019-02-12T00:27:04.428Z,53.76
2019-02-12T00:27:35.727Z,53.22
2019-02-12T00:28:06.992Z,53.14
2019-02-12T00:28:38.272Z,53.01
2019-02-12T00:29:09.573Z,53.19
2019-02-12T00:29:40.837Z,53.69
2019-02-12T00:30:12.245Z,54.27
2019-02-12T00:30:43.539Z,54.81
2019-02-12T00:31:14.849Z,55.58
2019-02-12T00:31:46.129Z,56.39
2019-02-12T00:32:17.567Z,57.14
2019-02-12T00:32:48.745Z,57.92
2019-02-12T00:33:19.986Z,58.31
2019-02-12T00:33:51.179Z,59.28
2019-02-12T00:34:22.413Z,60.08
2019-02-12T00:34:53.593Z,61.40
2019-02-12T00:35:24.947Z,62.40
2019-02-12T00:35:56.139Z,62.62
2019-02-12T00:36:28.369Z,62.49
2019-02-12T00:36:59.563Z,62.03
2019-02-12T00:37:30.825Z,61.33
2019-02-12T00:38:02.021Z,60.77
2019-02-12T00:38:33.275Z,60.07
2019-02-12T00:39:04.652Z,59.42
2019-02-12T00:39:37.822Z,58.71
2019-02-12T00:40:09.093Z,58.06
2019-02-12T00:40:40.348Z,57.49
2019-02-12T00:41:11.769Z,56.96
2019-02-12T00:41:43.006Z,56.27
2019-02-12T00:42:14.224Z,55.82
2019-02-12T00:42:45.497Z,55.35
2019-02-12T00:43:16.823Z,54.87
2019-02-12T00:43:48.176Z,54.56
2019-02-12T00:44:19.518Z,53.78
2019-02-12T00:44:50.816Z,53.01
2019-02-12T00:45:22.103Z,52.71
2019-02-12T00:45:53.408Z,53.03
2019-02-12T00:46:24.647Z,53.34
2019-02-12T00:46:55.961Z,53.82
2019-02-12T00:47:27.284Z,54.51
2019-02-12T00:47:58.450Z,55.30
2019-02-12T00:48:29.678Z,56.09
2019-02-12T00:49:00.858Z,56.64
2019-02-12T00:49:32.085Z,57.63
2019-02-12T00:50:07.771Z,58.39
2019-02-12T00:50:39.136Z,58.83
2019-02-12T00:51:17.618Z,59.93
2019-02-12T00:51:43.474Z,60.67
2019-02-12T00:52:14.705Z,61.61
2019-02-12T00:52:45.971Z,62.67
2019-02-12T00:53:17.191Z,63.11
2019-02-12T00:53:48.453Z,62.69
2019-02-12T00:54:19.635Z,62.42
2019-02-12T00:54:50.887Z,61.77
2019-02-12T00:55:22.071Z,61.02
2019-02-12T00:55:53.319Z,60.18
2019-02-12T00:56:24.517Z,59.60
2019-02-12T00:56:55.738Z,59.00
2019-02-12T00:57:26.952Z,58.46
2019-02-12T00:57:58.235Z,57.84
2019-02-12T00:58:29.535Z,57.20
2019-02-12T00:59:00.818Z,56.70
2019-02-12T00:59:32.103Z,56.20
2019-02-12T01:00:12.255Z,55.75
2019-02-12T01:00:43.512Z,55.28
2019-02-12T01:01:14.783Z,54.81
2019-02-12T01:01:46.085Z,54.17
2019-02-12T01:02:17.341Z,53.52
2019-02-12T01:02:48.610Z,53.26
2019-02-12T01:03:19.858Z,53.35
2019-02-12T01:03:51.054Z,53.66
2019-02-12T01:04:22.271Z,54.04
2019-02-12T01:04:53.488Z,54.76
2019-02-12T01:05:24.721Z,55.35
2019-02-12T01:05:55.912Z,56.26
2019-02-12T01:06:27.154Z,57.18
2019-02-12T01:06:58.539Z,57.88
2019-02-12T01:07:29.764Z,58.80
2019-02-12T01:08:00.956Z,59.51
2019-02-12T01:08:32.221Z,60.39
2019-02-12T01:09:03.974Z,61.58
2019-02-12T01:09:36.230Z,62.39
2019-02-12T01:10:09.720Z,62.47
2019-02-12T01:10:40.928Z,62.49
2019-02-12T01:11:12.122Z,61.70
2019-02-12T01:11:43.372Z,61.18
2019-02-12T01:12:14.586Z,60.64
2019-02-12T01:12:45.814Z,59.91
2019-02-12T01:13:17.012Z,59.22
2019-02-12T01:13:48.234Z,58.61
2019-02-12T01:14:19.446Z,58.05
2019-02-12T01:14:50.770Z,57.59
2019-02-12T01:15:21.948Z,56.92
2019-02-12T01:15:53.184Z,56.48
2019-02-12T01:16:24.400Z,56.03
2019-02-12T01:16:55.728Z,55.45
2019-02-12T01:17:26.910Z,55.11
2019-02-12T01:17:58.159Z,54.65
2019-02-12T01:18:29.400Z,54.07
2019-02-12T01:19:00.622Z,53.55
2019-02-12T01:19:31.819Z,53.14
2019-02-12T01:20:07.053Z,53.25
2019-02-12T01:20:38.252Z,53.57
2019-02-12T01:21:09.485Z,54.31
2019-02-12T01:21:40.676Z,54.82
2019-02-12T01:22:12.191Z,55.52
2019-02-12T01:22:43.387Z,56.46
2019-02-12T01:23:14.659Z,57.30
2019-02-12T01:23:45.889Z,57.79
2019-02-12T01:24:17.164Z,58.83
2019-02-12T01:24:48.319Z,59.72
2019-02-12T01:25:19.574Z,60.83
2019-02-12T01:25:50.827Z,61.54
2019-02-12T01:26:22.077Z,62.41
2019-02-12T01:26:53.262Z,62.93
2019-02-12T01:27:24.522Z,62.75
2019-02-12T01:27:55.730Z,62.15
2019-02-12T01:28:26.911Z,61.61
2019-02-12T01:28:58.155Z,60.90
2019-02-12T01:29:29.458Z,60.25
2019-02-12T01:30:02.873Z,59.52
2019-02-12T01:30:34.201Z,59.00
2019-02-12T01:31:05.424Z,58.26
2019-02-12T01:31:36.633Z,57.76
2019-02-12T01:32:07.835Z,57.35
2019-02-12T01:32:39.312Z,56.67
2019-02-12T01:33:10.570Z,56.15
2019-02-12T01:33:42.843Z,55.79
2019-02-12T01:34:14.058Z,55.40
2019-02-12T01:34:45.290Z,54.81
2019-02-12T01:35:16.493Z,54.57
2019-02-12T01:35:47.704Z,53.88
2019-02-12T01:36:18.936Z,53.23
2019-02-12T01:36:50.130Z,53.00
2019-02-12T01:37:21.328Z,53.09
2019-02-12T01:37:52.597Z,53.35
2019-02-12T01:38:23.776Z,53.81
2019-02-12T01:38:55.007Z,54.47
2019-02-12T01:39:26.221Z,55.03
2019-02-12T01:39:57.448Z,55.82
2019-02-12T01:40:28.653Z,56.52
2019-02-12T01:40:59.923Z,57.39
2019-02-12T01:41:31.071Z,58.14
2019-02-12T01:42:02.320Z,58.81
2019-02-12T01:42:33.591Z,59.72
2019-02-12T01:43:04.867Z,60.69
2019-02-12T01:43:36.057Z,61.96
2019-02-12T01:44:07.291Z,62.62
2019-02-12T01:44:38.459Z,62.72
2019-02-12T01:45:10.884Z,62.47
2019-02-12T01:45:42.188Z,61.89
2019-02-12T01:46:13.511Z,61.27
2019-02-12T01:46:44.704Z,60.64
2019-02-12T01:47:16.972Z,59.78
2019-02-12T01:47:48.175Z,59.14
2019-02-12T01:48:19.417Z,58.69
2019-02-12T01:48:50.571Z,57.99
2019-02-12T01:49:21.820Z,57.49
2019-02-12T01:49:52.981Z,56.95
2019-02-12T01:50:24.227Z,56.48
2019-02-12T01:50:55.399Z,56.07
2019-02-12T01:51:34.789Z,55.44
2019-02-12T01:51:59.714Z,55.09
2019-02-12T01:52:30.974Z,54.91
2019-02-12T01:53:02.176Z,54.26
2019-02-12T01:53:33.376Z,53.40
2019-02-12T01:54:04.562Z,53.08
2019-02-12T01:54:35.745Z,52.97
2019-02-12T01:55:07.027Z,53.34
2019-02-12T01:55:38.224Z,53.87
2019-02-12T01:56:09.433Z,54.49
2019-02-12T01:56:40.618Z,55.30
2019-02-12T01:57:11.836Z,56.07
2019-02-12T01:57:43.049Z,56.74
2019-02-12T01:58:14.272Z,57.61
2019-02-12T01:58:45.450Z,58.35
2019-02-12T01:59:16.674Z,59.17
2019-02-12T01:59:47.876Z,60.04
2019-02-12T02:00:19.123Z,61.44
2019-02-12T02:00:50.308Z,61.81
2019-02-12T02:01:21.549Z,62.53
2019-02-12T02:01:52.754Z,62.56
2019-02-12T02:02:23.995Z,62.13
2019-02-12T02:02:55.178Z,61.56
2019-02-12T02:03:26.468Z,60.85
2019-02-12T02:03:57.747Z,60.09
2019-02-12T02:04:29.034Z,59.44
2019-02-12T02:05:00.340Z,58.61
2019-02-12T02:05:31.715Z,58.03
2019-02-12T02:06:02.960Z,57.36
2019-02-12T02:06:34.280Z,56.77
2019-02-12T02:07:05.565Z,56.32
2019-02-12T02:07:36.846Z,55.88
2019-02-12T02:08:08.105Z,55.32
2019-02-12T02:08:39.359Z,55.05
2019-02-12T02:09:10.583Z,54.79
2019-02-12T02:09:41.817Z,54.44
2019-02-12T02:10:15.479Z,53.53
2019-02-12T02:10:46.743Z,53.15
2019-02-12T02:11:17.939Z,53.01
2019-02-12T02:11:49.175Z,53.04
2019-02-12T02:12:20.346Z,53.49
2019-02-12T02:12:51.583Z,54.01
2019-02-12T02:13:22.803Z,54.54
2019-02-12T02:13:54.077Z,55.25
2019-02-12T02:14:25.359Z,56.04
2019-02-12T02:14:56.656Z,56.89
2019-02-12T02:15:28.143Z,57.64
2019-02-12T02:15:59.394Z,58.38
2019-02-12T02:16:30.677Z,58.73
2019-02-12T02:17:01.994Z,59.72
2019-02-12T02:17:33.277Z,60.58
2019-02-12T02:18:04.546Z,62.00
2019-02-12T02:18:35.777Z,62.85
2019-02-12T02:19:06.968Z,62.83
2019-02-12T02:19:38.217Z,62.73
2019-02-12T02:20:13.595Z,62.24
2019-02-12T02:20:44.902Z,61.84
2019-02-12T02:21:16.067Z,60.93
2019-02-12T02:21:47.316Z,60.40
2019-02-12T02:22:18.503Z,59.66
2019-02-12T02:22:49.749Z,58.95
2019-02-12T02:23:20.966Z,58.31
2019-02-12T02:23:52.220Z,57.85
2019-02-12T02:24:23.442Z,57.36
2019-02-12T02:24:54.702Z,56.73
2019-02-12T02:25:25.872Z,56.36
2019-02-12T02:25:57.080Z,55.90
2019-02-12T02:26:28.262Z,55.44
2019-02-12T02:26:59.552Z,55.04
2019-02-12T02:27:30.784Z,54.68
2019-02-12T02:28:02.021Z,54.11
2019-02-12T02:28:33.225Z,53.22
2019-02-12T02:29:04.434Z,52.96
2019-02-12T02:29:35.646Z,53.04
2019-02-12T02:30:10.044Z,53.51
2019-02-12T02:30:41.317Z,54.13
2019-02-12T02:31:12.583Z,54.72
2019-02-12T02:31:43.800Z,55.64
2019-02-12T02:32:15.046Z,56.38
2019-02-12T02:32:46.300Z,57.06
2019-02-12T02:33:17.514Z,57.87
2019-02-12T02:33:48.719Z,58.45
2019-02-12T02:34:19.911Z,59.40
2019-02-12T02:34:51.129Z,60.51
2019-02-12T02:35:22.346Z,61.81
2019-02-12T02:35:53.542Z,62.44
2019-02-12T02:36:24.763Z,62.68
2019-02-12T02:36:55.985Z,62.74
2019-02-12T02:37:27.167Z,62.42
2019-02-12T02:37:58.373Z,61.80
2019-02-12T02:38:29.676Z,61.14
2019-02-12T02:39:00.871Z,60.51
2019-02-12T02:39:32.125Z,59.82
2019-02-12T02:40:06.503Z,59.15
2019-02-12T02:40:37.729Z,58.63
2019-02-12T02:41:09.189Z,58.10
2019-02-12T02:41:40.433Z,57.63
2019-02-12T02:42:11.627Z,56.96
2019-02-12T02:42:42.868Z,56.43
2019-02-12T02:43:14.042Z,56.02
2019-02-12T02:43:45.310Z,55.43
2019-02-12T02:44:16.516Z,55.31
2019-02-12T02:44:47.805Z,54.78
2019-02-12T02:45:19.003Z,54.01
2019-02-12T02:45:50.258Z,53.40
2019-02-12T02:46:21.457Z,53.11
2019-02-12T02:46:52.726Z,53.17
2019-02-12T02:47:23.930Z,53.60
2019-02-12T02:47:55.158Z,54.18
2019-02-12T02:48:26.337Z,54.79
2019-02-12T02:48:57.594Z,55.52
2019-02-12T02:49:28.872Z,56.40
2019-02-12T02:50:00.310Z,57.23
2019-02-12T02:50:31.512Z,57.94
2019-02-12T02:51:02.754Z,58.66
2019-02-12T02:51:33.915Z,59.44
2019-02-12T02:52:05.172Z,60.42
2019-02-12T02:52:36.372Z,61.70
2019-02-12T02:53:07.635Z,62.40
2019-02-12T02:53:39.112Z,62.62
2019-02-12T02:54:10.353Z,62.47
2019-02-12T02:54:41.541Z,62.14
2019-02-12T02:55:12.807Z,61.47
2019-02-12T02:55:43.994Z,60.93
2019-02-12T02:56:15.237Z,60.29
2019-02-12T02:56:46.422Z,59.63
2019-02-12T02:57:17.668Z,58.96
2019-02-12T02:57:48.847Z,58.29
2019-02-12T02:58:20.064Z,57.89
2019-02-12T02:58:51.279Z,57.44
2019-02-12T02:59:23.474Z,56.82
2019-02-12T02:59:54.722Z,56.32
2019-02-12T03:00:25.963Z,55.88
2019-02-12T03:00:57.184Z,55.43
2019-02-12T03:01:28.395Z,55.32
2019-02-12T03:01:59.600Z,54.96
2019-02-12T03:02:30.849Z,54.67
2019-02-12T03:03:02.391Z,53.84
2019-02-12T03:03:33.721Z,53.21
2019-02-12T03:04:04.955Z,53.08
2019-02-12T03:04:36.242Z,53.10
2019-02-12T03:05:09.900Z,53.46
2019-02-12T03:05:41.085Z,54.02
2019-02-12T03:06:12.377Z,54.62
2019-02-12T03:06:43.682Z,55.44
2019-02-12T03:07:14.929Z,56.30
2019-02-12T03:07:46.111Z,57.15
2019-02-12T03:08:17.369Z,57.83
2019-02-12T03:08:49.556Z,58.57
2019-02-12T03:09:20.793Z,59.45
2019-02-12T03:09:51.970Z,60.19
2019-02-12T03:10:24.229Z,61.19
2019-02-12T03:10:55.418Z,62.15
2019-02-12T03:11:26.757Z,62.65
2019-02-12T03:11:58.054Z,62.48
2019-02-12T03:12:29.286Z,61.99
2019-02-12T03:13:00.474Z,61.11
2019-02-12T03:13:31.723Z,60.84
2019-02-12T03:14:02.930Z,60.04
2019-02-12T03:14:34.197Z,59.54
2019-02-12T03:15:08.770Z,58.83
2019-02-12T03:15:40.093Z,58.12
2019-02-12T03:16:11.639Z,57.81
2019-02-12T03:16:42.941Z,57.26
2019-02-12T03:17:14.242Z,56.89
2019-02-12T03:17:45.514Z,56.42
2019-02-12T03:18:16.790Z,55.94
2019-02-12T03:18:48.078Z,55.73
2019-02-12T03:19:19.325Z,55.27
2019-02-12T03:19:50.523Z,54.96
2019-02-12T03:20:21.770Z,54.70
2019-02-12T03:20:52.952Z,54.07
2019-02-12T03:21:24.191Z,53.53
2019-02-12T03:22:03.395Z,53.23
2019-02-12T03:22:28.518Z,53.34
2019-02-12T03:22:59.793Z,53.73
2019-02-12T03:23:31.028Z,54.26
2019-02-12T03:24:02.275Z,54.92
2019-02-12T03:24:33.529Z,55.58
2019-02-12T03:25:07.666Z,56.37
2019-02-12T03:25:38.980Z,56.97
2019-02-12T03:26:10.153Z,57.98
2019-02-12T03:26:41.647Z,58.76
2019-02-12T03:27:12.822Z,59.36
2019-02-12T03:27:44.033Z,60.42
2019-02-12T03:28:15.251Z,62.03
2019-02-12T03:28:46.576Z,62.45
2019-02-12T03:29:17.812Z,62.89
2019-02-12T03:29:49.007Z,62.33
2019-02-12T03:30:20.214Z,62.18
2019-02-12T03:30:51.550Z,61.57
2019-02-12T03:31:22.750Z,61.17
2019-02-12T03:31:54.063Z,60.91
2019-02-12T03:32:25.293Z,60.13
2019-02-12T03:32:56.587Z,59.47
2019-02-12T03:33:27.782Z,58.65
2019-02-12T03:33:59.011Z,57.93
2019-02-12T03:34:30.440Z,57.54
2019-02-12T03:35:01.846Z,57.06
2019-02-12T03:35:33.066Z,56.63
2019-02-12T03:36:04.298Z,56.19
2019-02-12T03:36:35.493Z,55.84
2019-02-12T03:37:06.726Z,55.44
2019-02-12T03:37:37.938Z,55.32
2019-02-12T03:38:09.316Z,54.62
2019-02-12T03:38:40.547Z,53.59
2019-02-12T03:39:11.769Z,53.06
2019-02-12T03:39:42.964Z,53.25
2019-02-12T03:40:14.188Z,53.35
2019-02-12T03:40:45.506Z,53.70
2019-02-12T03:41:16.716Z,54.27
2019-02-12T03:41:47.932Z,54.77
2019-02-12T03:42:19.154Z,55.35
2019-02-12T03:42:50.355Z,56.23
2019-02-12T03:43:21.676Z,56.90
2019-02-12T03:43:52.888Z,58.01
2019-02-12T03:44:24.134Z,58.69
2019-02-12T03:44:55.322Z,59.38
2019-02-12T03:45:26.572Z,60.81
2019-02-12T03:45:57.777Z,61.27
2019-02-12T03:46:29.035Z,62.42
2019-02-12T03:47:00.233Z,62.61
2019-02-12T03:47:31.442Z,62.17
2019-02-12T03:48:02.672Z,62.01
2019-02-12T03:48:33.858Z,61.56
2019-02-12T03:49:05.075Z,61.01
2019-02-12T03:49:36.283Z,60.28
2019-02-12T03:50:10.091Z,59.60
2019-02-12T03:50:41.625Z,59.07
2019-02-12T03:51:12.833Z,58.57
2019-02-12T03:51:44.047Z,57.72
2019-02-12T03:52:16.258Z,57.20
2019-02-12T03:52:47.446Z,57.03
2019-02-12T03:53:18.649Z,56.66
2019-02-12T03:53:49.862Z,55.99
2019-02-12T03:54:21.078Z,55.59
2019-02-12T03:54:52.257Z,55.17
2019-02-12T03:55:23.425Z,55.08
2019-02-12T03:55:54.698Z,54.82
2019-02-12T03:56:25.901Z,54.03
2019-02-12T03:56:57.136Z,53.42
2019-02-12T03:57:28.318Z,53.04
2019-02-12T03:57:59.564Z,53.37
2019-02-12T03:58:30.772Z,53.57
2019-02-12T03:59:02.025Z,53.99
2019-02-12T03:59:33.250Z,54.58
2019-02-12T04:00:12.052Z,55.22
2019-02-12T04:00:43.282Z,55.82
2019-02-12T04:01:14.501Z,56.78
2019-02-12T04:01:45.700Z,57.55
2019-02-12T04:02:16.940Z,58.17
2019-02-12T04:03:00.626Z,58.58
2019-02-12T04:03:31.827Z,59.04
2019-02-12T04:04:03.099Z,60.82
2019-02-12T04:04:34.315Z,61.79
2019-02-12T04:05:06.499Z,62.22
2019-02-12T04:05:37.849Z,62.28
2019-02-12T04:06:09.082Z,61.73
2019-02-12T04:06:40.345Z,61.36
2019-02-12T04:07:11.527Z,60.69
2019-02-12T04:07:42.781Z,60.11
2019-02-12T04:08:13.944Z,59.37
2019-02-12T04:08:45.208Z,58.43
2019-02-12T04:09:16.378Z,58.01
2019-02-12T04:09:47.617Z,57.52
2019-02-12T04:10:18.925Z,56.79
2019-02-12T04:10:50.181Z,56.19
2019-02-12T04:11:21.491Z,55.92
2019-02-12T04:11:52.741Z,55.35
2019-02-12T04:12:23.917Z,54.83
2019-02-12T04:12:55.178Z,54.07
2019-02-12T04:13:26.449Z,53.39
2019-02-12T04:13:57.683Z,53.09
2019-02-12T04:14:28.882Z,53.10
2019-02-12T04:15:00.265Z,53.31
2019-02-12T04:15:31.629Z,53.80
2019-02-12T04:16:03.857Z,54.39
2019-02-12T04:16:35.036Z,54.96
2019-02-12T04:17:06.269Z,55.84
2019-02-12T04:17:37.456Z,56.66
2019-02-12T04:18:08.760Z,57.51
2019-02-12T04:18:39.950Z,58.45
2019-02-12T04:19:11.187Z,59.13
2019-02-12T04:19:42.449Z,59.93
2019-02-12T04:20:13.705Z,60.94
2019-02-12T04:20:44.905Z,62.11
2019-02-12T04:21:16.143Z,62.00
2019-02-12T04:21:47.338Z,62.22
2019-02-12T04:22:22.431Z,61.97
2019-02-12T04:22:51.668Z,61.34
2019-02-12T04:23:22.856Z,60.77
2019-02-12T04:23:54.090Z,60.14
2019-02-12T04:24:25.282Z,59.39
2019-02-12T04:24:56.522Z,58.70
2019-02-12T04:25:27.781Z,58.25
2019-02-12T04:25:59.030Z,57.74
2019-02-12T04:26:30.259Z,57.11
2019-02-12T04:27:01.560Z,56.67
2019-02-12T04:27:32.857Z,55.98
2019-02-12T04:28:04.151Z,55.57
2019-02-12T04:28:36.626Z,55.05
2019-02-12T04:29:07.932Z,54.76
2019-02-12T04:29:39.209Z,54.15
2019-02-12T04:30:10.468Z,53.45
2019-02-12T04:30:41.753Z,53.15
2019-02-12T04:31:12.982Z,53.16
2019-02-12T04:31:44.163Z,53.38
2019-02-12T04:32:15.404Z,53.84
2019-02-12T04:32:46.592Z,54.48
2019-02-12T04:33:17.813Z,55.08
2019-02-12T04:33:48.999Z,55.79
2019-02-12T04:34:20.247Z,56.71
2019-02-12T04:34:51.475Z,57.52
2019-02-12T04:35:22.760Z,58.03
2019-02-12T04:35:54.043Z,58.83
2019-02-12T04:36:25.361Z,59.42
2019-02-12T04:36:56.647Z,60.48
2019-02-12T04:37:27.923Z,60.77
2019-02-12T04:37:59.194Z,61.99
2019-02-12T04:38:30.487Z,62.50
2019-02-12T04:39:01.768Z,62.47
2019-02-12T04:39:33.047Z,62.02
2019-02-12T04:40:08.635Z,61.28
2019-02-12T04:40:39.801Z,60.45
2019-02-12T04:41:11.047Z,59.72
2019-02-12T04:41:42.296Z,59.07
2019-02-12T04:42:13.540Z,58.19
2019-02-12T04:42:44.770Z,57.73
2019-02-12T04:43:16.081Z,57.27
2019-02-12T04:43:47.253Z,56.46
2019-02-12T04:44:18.502Z,56.17
2019-02-12T04:44:49.693Z,55.74
2019-02-12T04:45:20.938Z,55.43
2019-02-12T04:45:52.117Z,55.13
2019-02-12T04:46:23.350Z,54.70
2019-02-12T04:46:54.557Z,54.13
2019-02-12T04:47:25.834Z,53.47
2019-02-12T04:47:57.102Z,53.12
2019-02-12T04:48:28.364Z,53.27
2019-02-12T04:48:59.631Z,53.54
2019-02-12T04:49:30.899Z,53.99
2019-02-12T04:50:05.548Z,54.75
2019-02-12T04:50:37.817Z,55.48
2019-02-12T04:51:09.342Z,56.39
2019-02-12T04:51:40.618Z,57.08
2019-02-12T04:52:12.203Z,57.78
2019-02-12T04:52:43.507Z,58.14
2019-02-12T04:53:14.786Z,59.58
2019-02-12T04:53:46.103Z,60.70
2019-02-12T04:54:17.465Z,61.88
2019-02-12T04:54:48.745Z,62.36
2019-02-12T04:55:19.987Z,62.76
2019-02-12T04:55:51.161Z,62.70
2019-02-12T04:56:22.432Z,62.19
2019-02-12T04:56:53.622Z,61.74
2019-02-12T04:57:24.857Z,61.12
2019-02-12T04:57:56.031Z,60.38
2019-02-12T04:58:27.265Z,59.62
2019-02-12T04:58:58.461Z,59.03
2019-02-12T04:59:29.753Z,58.51
2019-02-12T05:00:00.917Z,58.07
2019-02-12T05:00:32.221Z,57.42
2019-02-12T05:01:03.558Z,56.95
2019-02-12T05:01:34.827Z,56.53
2019-02-12T05:02:06.003Z,56.57
2019-02-12T05:02:37.248Z,56.30
2019-02-12T05:03:08.440Z,55.79
2019-02-12T05:03:39.665Z,55.50
2019-02-12T05:04:10.924Z,55.09
2019-02-12T05:04:42.327Z,54.88
2019-02-12T05:05:13.542Z,54.42
2019-02-12T05:05:44.750Z,54.11
2019-02-12T05:06:15.964Z,53.42
2019-02-12T05:06:47.188Z,53.18
2019-02-12T05:07:18.425Z,53.63
2019-02-12T05:07:49.654Z,53.95
2019-02-12T05:08:20.921Z,54.45
2019-02-12T05:09:14.304Z,55.05
2019-02-12T05:09:47.133Z,55.95
2019-02-12T05:10:32.956Z,56.99
2019-02-12T05:11:04.660Z,57.62
2019-02-12T05:11:36.087Z,58.43
2019-02-12T05:12:07.293Z,59.74
2019-02-12T05:12:38.554Z,60.75
2019-02-12T05:13:09.750Z,61.82
2019-02-12T05:13:40.992Z,62.57
2019-02-12T05:14:12.266Z,62.57
2019-02-12T05:14:43.462Z,62.66
2019-02-12T05:15:14.673Z,62.10
2019-02-12T05:15:45.875Z,61.38
2019-02-12T05:16:17.090Z,60.99
2019-02-12T05:16:48.318Z,60.43
2019-02-12T05:17:19.518Z,59.76
2019-02-12T05:17:50.747Z,59.12
2019-02-12T05:18:21.965Z,58.52
2019-02-12T05:18:53.209Z,57.93
2019-02-12T05:19:24.443Z,57.33
2019-02-12T05:19:55.621Z,56.75
2019-02-12T05:20:27.837Z,56.38
2019-02-12T05:20:59.065Z,56.07
2019-02-12T05:21:30.370Z,55.55
2019-02-12T05:22:01.623Z,55.00
2019-02-12T05:22:42.859Z,54.78
2019-02-12T05:23:05.991Z,54.11
2019-02-12T05:23:37.219Z,53.42
2019-02-12T05:24:08.747Z,53.25
2019-02-12T05:24:40.007Z,53.25
2019-02-12T05:25:12.406Z,53.73
2019-02-12T05:25:43.630Z,54.23
2019-02-12T05:26:14.807Z,54.91
2019-02-12T05:26:46.090Z,55.82
2019-02-12T05:27:17.251Z,56.57
2019-02-12T05:27:48.515Z,57.31
2019-02-12T05:28:19.686Z,58.06
2019-02-12T05:28:51.057Z,58.89
2019-02-12T05:29:22.241Z,59.38
2019-02-12T05:29:53.482Z,60.23
2019-02-12T05:30:24.694Z,61.43
2019-02-12T05:30:56.000Z,62.44
2019-02-12T05:31:27.360Z,62.54
2019-02-12T05:31:58.643Z,62.62
2019-02-12T05:32:29.916Z,62.31
2019-02-12T05:33:01.206Z,61.66
2019-02-12T05:33:32.501Z,61.09
2019-02-12T05:34:03.765Z,60.37
2019-02-12T05:34:35.132Z,59.68
2019-02-12T05:35:06.403Z,59.10
2019-02-12T05:35:37.660Z,58.41
2019-02-12T05:36:08.938Z,57.88
2019-02-12T05:36:40.183Z,57.20
2019-02-12T05:37:11.336Z,56.70
2019-02-12T05:37:42.971Z,56.17
2019-02-12T05:38:14.165Z,55.80
2019-02-12T05:38:45.636Z,55.70
2019-02-12T05:39:16.807Z,55.11
2019-02-12T05:39:48.061Z,54.61
2019-02-12T05:40:19.235Z,53.98
2019-02-12T05:40:50.464Z,53.27
2019-02-12T05:41:21.637Z,53.10
2019-02-12T05:41:52.874Z,53.20
2019-02-12T05:42:24.064Z,53.54
2019-02-12T05:42:55.385Z,54.30
2019-02-12T05:43:26.593Z,54.80
2019-02-12T05:43:57.840Z,55.57
2019-02-12T05:44:29.134Z,56.46
2019-02-12T05:45:00.432Z,57.22
2019-02-12T05:45:31.647Z,58.05
2019-02-12T05:46:02.904Z,58.82
2019-02-12T05:46:34.069Z,59.56
2019-02-12T05:47:06.961Z,60.46
2019-02-12T05:47:38.284Z,61.66
2019-02-12T05:48:09.581Z,62.63
2019-02-12T05:48:40.762Z,62.85
2019-02-12T05:49:12.041Z,62.65
2019-02-12T05:49:43.278Z,62.13
2019-02-12T05:50:16.325Z,61.47
2019-02-12T05:50:47.558Z,60.90
2019-02-12T05:51:18.841Z,60.30
2019-02-12T05:51:50.120Z,59.76
2019-02-12T05:52:21.367Z,59.06
2019-02-12T05:52:54.833Z,58.40
2019-02-12T05:53:25.839Z,57.83
2019-02-12T05:53:57.129Z,57.35
2019-02-12T05:54:29.506Z,56.93
2019-02-12T05:55:00.804Z,56.44
2019-02-12T05:55:32.094Z,55.93
2019-02-12T05:56:03.342Z,55.85
2019-02-12T05:56:34.516Z,55.30
2019-02-12T05:57:05.775Z,54.88
2019-02-12T05:57:36.942Z,54.59
2019-02-12T05:58:08.202Z,53.87
2019-02-12T05:58:39.399Z,53.32
2019-02-12T05:59:10.638Z,53.18
2019-02-12T05:59:41.952Z,53.19
2019-02-12T06:00:19.823Z,53.60
2019-02-12T06:00:51.029Z,53.97
2019-02-12T06:01:22.251Z,54.71
2019-02-12T06:01:53.409Z,55.48
2019-02-12T06:02:24.656Z,56.37
2019-02-12T06:02:55.949Z,57.29
2019-02-12T06:03:27.216Z,57.88
2019-02-12T06:03:58.389Z,58.60
2019-02-12T06:04:29.668Z,59.30
2019-02-12T06:05:00.847Z,60.18
2019-02-12T06:05:32.099Z,61.40
2019-02-12T06:06:03.308Z,62.32
2019-02-12T06:06:34.579Z,62.70
2019-02-12T06:07:05.885Z,62.40
2019-02-12T06:07:37.172Z,61.91
2019-02-12T06:08:08.673Z,61.34
2019-02-12T06:08:39.944Z,60.64
2019-02-12T06:09:11.212Z,59.88
2019-02-12T06:09:42.499Z,59.15
2019-02-12T06:10:13.775Z,58.42
2019-02-12T06:10:45.043Z,57.72
2019-02-12T06:11:16.301Z,57.37
2019-02-12T06:11:47.491Z,56.78
2019-02-12T06:12:18.737Z,56.30
2019-02-12T06:12:49.914Z,56.01
2019-02-12T06:13:21.169Z,55.48
2019-02-12T06:13:52.371Z,55.05
2019-02-12T06:14:23.632Z,54.61
2019-02-12T06:14:54.823Z,53.86
2019-02-12T06:15:26.066Z,53.17
2019-02-12T06:15:57.260Z,52.96
2019-02-12T06:16:28.516Z,53.04
2019-02-12T06:16:59.718Z,53.57
2019-02-12T06:17:30.958Z,53.96
2019-02-12T06:18:02.146Z,54.55
2019-02-12T06:18:33.364Z,55.26
2019-02-12T06:19:04.534Z,56.13
2019-02-12T06:19:35.770Z,56.82
2019-02-12T06:20:06.941Z,57.61
2019-02-12T06:20:38.244Z,58.30
2019-02-12T06:21:09.580Z,59.11
2019-02-12T06:21:40.856Z,59.82
2019-02-12T06:22:12.394Z,61.12
2019-02-12T06:22:43.666Z,62.00
2019-02-12T06:23:14.991Z,62.17
2019-02-12T06:23:46.272Z,61.95
2019-02-12T06:24:17.532Z,61.47
2019-02-12T06:24:48.829Z,60.94
2019-02-12T06:25:20.208Z,60.31
2019-02-12T06:25:51.500Z,59.66
2019-02-12T06:26:22.723Z,59.06
2019-02-12T06:26:53.920Z,58.43
2019-02-12T06:27:25.183Z,57.77
2019-02-12T06:27:56.390Z,57.08
2019-02-12T06:28:27.652Z,56.51
2019-02-12T06:28:58.856Z,56.01
2019-02-12T06:29:30.305Z,55.72
2019-02-12T06:30:01.501Z,55.25
2019-02-12T06:30:32.762Z,54.74
2019-02-12T06:31:03.928Z,54.34
2019-02-12T06:31:35.171Z,53.45
2019-02-12T06:32:06.375Z,53.20
2019-02-12T06:32:37.621Z,53.32
2019-02-12T06:33:08.818Z,53.79
2019-02-12T06:33:40.066Z,54.19
2019-02-12T06:34:11.269Z,54.79
2019-02-12T06:34:42.515Z,55.64
2019-02-12T06:35:14.696Z,56.24
2019-02-12T06:35:45.938Z,57.11
2019-02-12T06:36:17.097Z,57.82
2019-02-12T06:36:48.335Z,58.48
2019-02-12T06:37:19.556Z,59.20
2019-02-12T06:37:50.755Z,60.12
2019-02-12T06:38:22.001Z,61.35
2019-02-12T06:38:53.292Z,62.08
2019-02-12T06:39:24.517Z,62.40
2019-02-12T06:39:55.701Z,62.16
2019-02-12T06:40:26.949Z,61.68
2019-02-12T06:40:58.169Z,60.81
2019-02-12T06:41:29.430Z,60.19
2019-02-12T06:42:00.621Z,59.54
2019-02-12T06:42:31.872Z,58.97
2019-02-12T06:43:03.050Z,58.38
2019-02-12T06:43:34.282Z,57.95
2019-02-12T06:44:05.491Z,57.11
2019-02-12T06:44:36.731Z,56.80
2019-02-12T06:45:12.528Z,56.12